createdAt,value
2019-03-16T00:02:01.724Z,9.94
2019-03-16T00:04:32.219Z,9.90
2019-03-16T00:07:02.706Z,9.83
2019-03-16T00:09:33.190Z,9.82
2019-03-16T00:12:03.825Z,9.86
2019-03-16T00:14:34.302Z,9.86
2019-03-16T00:17:04.786Z,9.84
2019-03-16T00:19:35.227Z,9.85
2019-03-16T00:22:06.550Z,9.90
2019-03-16T00:24:37.346Z,9.93
2019-03-16T00:27:08.117Z,9.93
2019-03-16T00:29:38.865Z,9.91
2019-03-16T00:32:13.737Z,9.83
2019-03-16T00:34:42.130Z,9.82
2019-03-16T00:37:12.830Z,9.86
2019-03-16T00:39:43.536Z,9.77
2019-03-16T00:42:14.208Z,9.73
2019-03-16T00:44:44.969Z,9.82
2019-03-16T00:47:15.630Z,9.75
2019-03-16T00:49:46.207Z,9.78
2019-03-16T00:52:16.668Z,9.66
2019-03-16T00:54:47.374Z,9.59
2019-03-16T00:57:18.176Z,9.75
2019-03-16T00:59:48.986Z,9.78
2019-03-16T01:02:26.992Z,9.74
2019-03-16T01:04:52.023Z,9.77
2019-03-16T01:07:22.785Z,9.79
2019-03-16T01:09:53.576Z,9.78
2019-03-16T01:12:24.263Z,9.70
2019-03-16T01:14:54.929Z,9.65
2019-03-16T01:17:25.570Z,9.49
2019-03-16T01:19:56.504Z,9.44
2019-03-16T01:22:27.202Z,9.45
2019-03-16T01:24:57.904Z,9.45
2019-03-16T01:27:28.566Z,9.41
2019-03-16T01:29:59.454Z,9.44
2019-03-16T01:32:39.935Z,9.44
2019-03-16T01:35:02.494Z,9.40
2019-03-16T01:37:33.154Z,9.32
2019-03-16T01:40:03.932Z,9.19
2019-03-16T01:42:34.371Z,9.17
2019-03-16T01:45:05.657Z,9.19
2019-03-16T01:47:36.431Z,9.20
2019-03-16T01:50:07.365Z,9.01
2019-03-16T01:52:37.816Z,9.08
2019-03-16T01:55:08.582Z,9.05
2019-03-16T01:57:39.039Z,9.16
2019-03-16T02:00:10.417Z,9.00
2019-03-16T02:02:53.709Z,9.05
2019-03-16T02:05:13.167Z,9.02
2019-03-16T02:07:43.998Z,8.99
2019-03-16T02:10:14.759Z,8.94
2019-03-16T02:12:45.469Z,8.98
2019-03-16T02:15:16.263Z,9.05
2019-03-16T02:17:47.206Z,9.05
2019-03-16T02:20:17.946Z,9.05
2019-03-16T02:22:48.711Z,9.11
2019-03-16T02:25:19.450Z,9.20
2019-03-16T02:27:50.149Z,9.08
2019-03-16T02:30:20.795Z,9.04
2019-03-16T02:32:51.555Z,9.06
2019-03-16T02:35:22.258Z,9.04
2019-03-16T02:37:52.959Z,9.00
2019-03-16T02:40:23.445Z,8.94
2019-03-16T02:42:54.361Z,8.93
2019-03-16T02:45:25.138Z,8.98
2019-03-16T02:47:55.796Z,8.88
2019-03-16T02:50:26.271Z,8.89
2019-03-16T02:52:56.725Z,8.87
2019-03-16T02:55:27.163Z,8.99
2019-03-16T02:57:57.661Z,8.90
2019-03-16T03:00:28.403Z,8.93
2019-03-16T03:02:59.057Z,8.84
2019-03-16T03:05:29.801Z,8.86
2019-03-16T03:08:00.312Z,8.80
2019-03-16T03:10:30.753Z,8.80
2019-03-16T03:13:01.585Z,8.73
2019-03-16T03:15:32.227Z,8.76
2019-03-16T03:18:03.234Z,8.65
2019-03-16T03:20:33.998Z,8.63
2019-03-16T03:23:04.816Z,8.57
2019-03-16T03:25:35.551Z,8.45
2019-03-16T03:28:06.379Z,8.34
2019-03-16T03:30:37.161Z,8.33
2019-03-16T03:33:07.961Z,8.34
2019-03-16T03:35:38.757Z,8.34
2019-03-16T03:38:09.310Z,8.47
2019-03-16T03:40:40.069Z,8.54
2019-03-16T03:43:10.720Z,8.61
2019-03-16T03:45:41.516Z,8.65
2019-03-16T03:48:12.265Z,8.71
2019-03-16T03:50:43.034Z,8.72
2019-03-16T03:53:13.766Z,8.67
2019-03-16T03:55:44.572Z,8.53
2019-03-16T03:58:15.394Z,8.32
2019-03-16T04:00:45.984Z,8.47
2019-03-16T04:03:16.574Z,8.52
2019-03-16T04:05:47.110Z,8.63
2019-03-16T04:08:17.663Z,8.66
2019-03-16T04:10:48.133Z,8.62
2019-03-16T04:13:18.581Z,8.62
2019-03-16T04:15:49.034Z,8.60
2019-03-16T04:18:19.471Z,8.44
2019-03-16T04:20:49.984Z,8.21
2019-03-16T04:23:20.417Z,8.12
2019-03-16T04:25:50.902Z,8.06
2019-03-16T04:28:21.355Z,7.99
2019-03-16T04:30:51.842Z,7.77
2019-03-16T04:33:22.288Z,7.91
2019-03-16T04:35:52.772Z,8.05
2019-03-16T04:38:23.228Z,8.21
2019-03-16T04:40:53.732Z,8.27
2019-03-16T04:43:24.450Z,8.39
2019-03-16T04:45:55.110Z,8.49
2019-03-16T04:48:25.951Z,8.57
2019-03-16T04:50:56.722Z,8.64
2019-03-16T04:53:27.631Z,8.62
2019-03-16T04:55:58.427Z,8.75
2019-03-16T04:58:29.114Z,8.89
2019-03-16T05:00:59.939Z,9.00
2019-03-16T05:03:30.849Z,9.11
2019-03-16T05:06:01.562Z,9.22
2019-03-16T05:08:32.335Z,9.30
2019-03-16T05:11:02.909Z,9.37
2019-03-16T05:13:33.577Z,9.41
2019-03-16T05:16:04.342Z,9.41
2019-03-16T05:18:35.188Z,9.36
2019-03-16T05:21:06.084Z,9.34
2019-03-16T05:23:36.821Z,9.38
2019-03-16T05:26:07.637Z,9.39
2019-03-16T05:28:38.114Z,9.41
2019-03-16T05:31:08.595Z,9.39
2019-03-16T05:33:39.041Z,9.41
2019-03-16T05:36:09.724Z,9.46
2019-03-16T05:38:40.550Z,9.49
2019-03-16T05:41:11.260Z,9.54
2019-03-16T05:43:41.853Z,9.57
2019-03-16T05:46:12.910Z,9.60
2019-03-16T05:48:43.663Z,9.63
2019-03-16T05:51:14.374Z,9.62
2019-03-16T05:53:45.252Z,9.69
2019-03-16T05:56:16.094Z,9.74
2019-03-16T05:58:46.651Z,9.82
2019-03-16T06:01:18.750Z,9.85
2019-03-16T06:03:49.447Z,9.92
2019-03-16T06:06:20.290Z,9.99
2019-03-16T06:08:50.889Z,10.06
2019-03-16T06:11:24.333Z,10.15
2019-03-16T06:13:55.154Z,10.26
2019-03-16T06:16:25.848Z,10.36
2019-03-16T06:18:58.468Z,10.45
2019-03-16T06:21:29.044Z,10.52
2019-03-16T06:24:01.742Z,10.46
2019-03-16T06:26:32.461Z,10.58
2019-03-16T06:29:02.852Z,10.70
2019-03-16T06:31:33.420Z,10.69
2019-03-16T06:34:04.078Z,10.84
2019-03-16T06:36:34.834Z,10.91
2019-03-16T06:39:07.948Z,11.02
2019-03-16T06:41:38.372Z,11.11
2019-03-16T06:44:09.217Z,11.17
2019-03-16T06:46:39.623Z,11.27
2019-03-16T06:49:10.306Z,11.36
2019-03-16T06:51:41.244Z,11.32
2019-03-16T06:54:12.162Z,11.42
2019-03-16T06:56:42.812Z,11.44
2019-03-16T06:59:13.501Z,11.55
2019-03-16T07:01:44.187Z,11.61
2019-03-16T07:04:14.883Z,11.78
2019-03-16T07:06:46.700Z,11.94
2019-03-16T07:09:19.411Z,12.13
2019-03-16T07:11:49.941Z,12.30
2019-03-16T07:14:20.486Z,12.48
2019-03-16T07:17:01.593Z,12.69
2019-03-16T07:19:23.042Z,12.74
2019-03-16T07:21:53.887Z,12.85
2019-03-16T07:24:26.601Z,12.86
2019-03-16T07:26:57.434Z,13.05
2019-03-16T07:29:28.396Z,13.09
2019-03-16T07:31:58.837Z,13.36
2019-03-16T07:34:31.517Z,13.28
2019-03-16T07:37:01.972Z,13.45
2019-03-16T07:39:32.365Z,13.56
2019-03-16T07:42:02.930Z,13.62
2019-03-16T07:44:33.318Z,13.74
2019-03-16T07:47:03.846Z,13.90
2019-03-16T07:49:34.245Z,13.70
2019-03-16T07:52:05.786Z,13.70
2019-03-16T07:54:36.183Z,13.78
2019-03-16T07:57:06.579Z,14.06
2019-03-16T07:59:37.389Z,14.14
2019-03-16T08:02:07.780Z,14.18
2019-03-16T08:04:38.211Z,14.17
2019-03-16T08:07:08.615Z,14.30
2019-03-16T08:09:39.150Z,14.28
2019-03-16T08:12:09.539Z,14.49
2019-03-16T08:14:41.257Z,14.61
2019-03-16T08:17:11.731Z,14.64
2019-03-16T08:19:43.548Z,14.69
2019-03-16T08:22:14.168Z,14.93
2019-03-16T08:24:46.786Z,14.90
2019-03-16T08:27:17.476Z,15.01
2019-03-16T08:29:48.347Z,14.98
2019-03-16T08:32:19.099Z,15.00
2019-03-16T08:34:50.207Z,15.13
2019-03-16T08:37:20.924Z,15.38
2019-03-16T08:39:51.448Z,15.53
2019-03-16T08:42:21.951Z,15.67
2019-03-16T08:44:53.032Z,15.74
2019-03-16T08:47:23.741Z,16.01
2019-03-16T08:49:54.461Z,16.03
2019-03-16T08:52:24.936Z,16.18
2019-03-16T08:54:55.430Z,16.19
2019-03-16T08:57:25.999Z,15.95
2019-03-16T08:59:56.721Z,16.23
2019-03-16T09:02:27.333Z,16.29
2019-03-16T09:04:58.022Z,16.27
2019-03-16T09:07:28.630Z,16.11
2019-03-16T09:09:59.041Z,16.17
2019-03-16T09:12:29.479Z,16.44
2019-03-16T09:15:01.340Z,16.58
2019-03-16T09:17:31.828Z,16.56
2019-03-16T09:20:02.258Z,16.65
2019-03-16T09:22:32.693Z,16.77
2019-03-16T09:25:03.097Z,16.83
2019-03-16T09:27:33.521Z,16.89
2019-03-16T09:30:07.327Z,16.94
2019-03-16T09:32:38.028Z,16.89
2019-03-16T09:35:08.723Z,16.98
2019-03-16T09:37:39.572Z,17.02
2019-03-16T09:40:10.435Z,17.03
2019-03-16T09:42:41.173Z,17.18
2019-03-16T09:45:12.387Z,17.35
2019-03-16T09:47:43.420Z,17.44
2019-03-16T09:50:14.194Z,17.38
2019-03-16T09:52:44.902Z,17.29
2019-03-16T09:55:25.099Z,17.40
2019-03-16T09:57:55.482Z,17.57
2019-03-16T10:00:26.151Z,17.73
2019-03-16T10:02:57.762Z,17.85
2019-03-16T10:05:28.344Z,17.97
2019-03-16T10:07:59.109Z,17.87
2019-03-16T10:10:31.589Z,17.98
2019-03-16T10:13:02.036Z,18.05
2019-03-16T10:15:32.508Z,17.75
2019-03-16T10:18:03.301Z,18.01
2019-03-16T10:20:33.789Z,18.11
2019-03-16T10:23:04.225Z,18.08
2019-03-16T10:25:34.621Z,18.25
2019-03-16T10:28:06.148Z,18.36
2019-03-16T10:30:36.832Z,18.55
2019-03-16T10:33:07.523Z,18.70
2019-03-16T10:35:37.921Z,18.69
2019-03-16T10:38:08.764Z,18.76
2019-03-16T10:40:39.090Z,18.73
2019-03-16T10:43:09.479Z,18.79
2019-03-16T10:45:39.902Z,18.80
2019-03-16T10:48:11.332Z,18.84
2019-03-16T10:50:41.760Z,18.91
2019-03-16T10:53:12.151Z,19.00
2019-03-16T10:55:42.686Z,18.99
2019-03-16T10:58:13.175Z,19.13
2019-03-16T11:00:43.465Z,19.18
2019-03-16T11:03:13.896Z,19.18
2019-03-16T11:05:44.425Z,19.23
2019-03-16T11:08:16.989Z,19.26
2019-03-16T11:10:48.429Z,19.32
2019-03-16T11:13:22.062Z,19.34
2019-03-16T11:15:53.789Z,19.37
2019-03-16T11:18:25.640Z,19.45
2019-03-16T11:20:56.644Z,19.53
2019-03-16T11:23:27.456Z,19.64
2019-03-16T11:25:57.899Z,19.67
2019-03-16T11:28:29.150Z,19.66
2019-03-16T11:30:59.759Z,19.78
2019-03-16T11:33:30.399Z,19.80
2019-03-16T11:36:01.059Z,19.79
2019-03-16T11:38:31.735Z,19.81
2019-03-16T11:41:02.439Z,19.97
2019-03-16T11:43:33.064Z,20.00
2019-03-16T11:46:03.782Z,20.02
2019-03-16T11:48:34.402Z,20.06
2019-03-16T11:51:05.277Z,20.13
2019-03-16T11:53:35.805Z,20.21
2019-03-16T11:56:17.472Z,20.29
2019-03-16T11:58:38.843Z,20.26
2019-03-16T12:01:09.515Z,20.36
2019-03-16T12:03:39.912Z,20.43
2019-03-16T12:06:10.344Z,20.51
2019-03-16T12:08:40.733Z,20.51
2019-03-16T12:11:11.258Z,20.44
2019-03-16T12:13:43.869Z,20.47
2019-03-16T12:16:14.655Z,20.48
2019-03-16T12:18:46.175Z,20.48
2019-03-16T12:21:16.703Z,20.57
2019-03-16T12:23:47.103Z,20.58
2019-03-16T12:26:20.040Z,20.56
2019-03-16T12:28:49.961Z,20.56
2019-03-16T12:31:20.238Z,20.59
2019-03-16T12:33:56.426Z,20.75
2019-03-16T12:36:25.916Z,20.73
2019-03-16T12:38:56.309Z,20.84
2019-03-16T12:41:26.696Z,20.76
2019-03-16T12:43:57.414Z,20.84
2019-03-16T12:46:28.176Z,20.91
2019-03-16T12:48:58.799Z,20.94
2019-03-16T12:51:29.666Z,21.06
2019-03-16T12:54:01.297Z,21.10
2019-03-16T12:56:31.863Z,21.09
2019-03-16T12:59:10.361Z,21.20
2019-03-16T13:01:36.477Z,21.28
2019-03-16T13:04:07.099Z,21.28
2019-03-16T13:06:37.528Z,21.41
2019-03-16T13:09:09.206Z,21.39
2019-03-16T13:11:39.922Z,21.36
2019-03-16T13:14:10.555Z,21.28
2019-03-16T13:16:41.325Z,21.24
2019-03-16T13:19:12.598Z,21.13
2019-03-16T13:21:43.963Z,21.16
2019-03-16T13:24:14.654Z,21.07
2019-03-16T13:26:45.327Z,21.09
2019-03-16T13:29:15.757Z,21.02
2019-03-16T13:31:46.138Z,21.00
2019-03-16T13:34:16.576Z,20.98
2019-03-16T13:36:46.963Z,20.82
2019-03-16T13:39:17.631Z,20.73
2019-03-16T13:41:48.444Z,20.63
2019-03-16T13:44:19.175Z,20.65
2019-03-16T13:46:49.839Z,20.60
2019-03-16T13:49:20.426Z,20.55
2019-03-16T13:51:51.279Z,20.50
2019-03-16T13:54:21.861Z,20.42
2019-03-16T13:56:52.276Z,20.36
2019-03-16T13:59:22.662Z,20.33
2019-03-16T14:01:53.237Z,20.34
2019-03-16T14:04:23.893Z,20.33
2019-03-16T14:06:54.569Z,20.36
2019-03-16T14:09:25.246Z,20.36
2019-03-16T14:11:55.988Z,20.32
2019-03-16T14:14:26.596Z,20.33
2019-03-16T14:16:57.158Z,20.32
2019-03-16T14:19:27.826Z,20.30
2019-03-16T14:21:58.220Z,20.28
2019-03-16T14:24:28.922Z,20.34
2019-03-16T14:26:59.789Z,20.30
2019-03-16T14:29:30.463Z,20.25
2019-03-16T14:32:01.282Z,20.19
2019-03-16T14:34:31.883Z,20.22
2019-03-16T14:37:02.575Z,20.28
2019-03-16T14:39:39.541Z,20.23
2019-03-16T14:42:10.646Z,20.24
2019-03-16T14:44:41.508Z,20.35
2019-03-16T14:47:15.072Z,20.43
2019-03-16T14:49:46.774Z,20.49
2019-03-16T14:52:19.375Z,20.48
2019-03-16T14:54:49.931Z,20.55
2019-03-16T14:57:20.435Z,20.58
2019-03-16T14:59:50.955Z,20.60
2019-03-16T15:02:21.545Z,20.51
2019-03-16T15:04:52.236Z,20.53
2019-03-16T15:07:22.948Z,20.51
2019-03-16T15:09:53.646Z,20.50
2019-03-16T15:12:24.277Z,20.36
2019-03-16T15:14:55.011Z,20.28
2019-03-16T15:17:25.735Z,20.23
2019-03-16T15:19:56.411Z,20.19
2019-03-16T15:22:27.049Z,20.07
2019-03-16T15:24:57.856Z,19.99
2019-03-16T15:27:28.483Z,19.97
2019-03-16T15:29:59.155Z,19.93
2019-03-16T15:32:29.960Z,19.81
2019-03-16T15:35:00.659Z,19.84
2019-03-16T15:37:31.565Z,19.78
2019-03-16T15:40:02.308Z,19.81
2019-03-16T15:42:33.064Z,19.74
2019-03-16T15:45:03.875Z,19.66
2019-03-16T15:47:34.471Z,19.63
2019-03-16T15:50:05.514Z,19.55
2019-03-16T15:52:37.566Z,19.54
2019-03-16T15:55:08.785Z,19.49
2019-03-16T15:57:42.312Z,19.46
2019-03-16T16:00:12.861Z,19.46
2019-03-16T16:02:43.424Z,19.41
2019-03-16T16:05:13.915Z,19.36
2019-03-16T16:07:44.667Z,19.31
2019-03-16T16:10:15.279Z,19.27
2019-03-16T16:12:46.122Z,19.26
2019-03-16T16:15:17.003Z,19.20
2019-03-16T16:17:48.114Z,19.11
2019-03-16T16:20:18.831Z,19.03
2019-03-16T16:22:49.569Z,18.97
2019-03-16T16:25:20.400Z,18.96
2019-03-16T16:27:51.356Z,18.89
2019-03-16T16:30:22.150Z,18.83
2019-03-16T16:32:53.063Z,18.69
2019-03-16T16:35:23.755Z,18.62
2019-03-16T16:37:54.604Z,18.58
2019-03-16T16:40:25.401Z,18.53
2019-03-16T16:42:56.117Z,18.51
2019-03-16T16:45:26.943Z,18.46
2019-03-16T16:47:57.651Z,18.42
2019-03-16T16:50:28.390Z,18.37
2019-03-16T16:52:59.156Z,18.32
2019-03-16T16:55:29.611Z,18.29
2019-03-16T16:58:00.315Z,18.26
2019-03-16T17:00:31.094Z,18.27
2019-03-16T17:03:01.856Z,18.26
2019-03-16T17:05:32.638Z,18.24
2019-03-16T17:08:03.337Z,18.25
2019-03-16T17:10:34.159Z,18.20
2019-03-16T17:13:05.045Z,18.12
2019-03-16T17:15:35.677Z,18.07
2019-03-16T17:18:06.336Z,18.05
2019-03-16T17:20:36.856Z,18.05
2019-03-16T17:23:07.315Z,17.99
2019-03-16T17:25:37.752Z,17.94
2019-03-16T17:28:08.235Z,17.85
2019-03-16T17:30:38.691Z,17.84
2019-03-16T17:33:09.455Z,17.77
2019-03-16T17:35:40.235Z,17.64
2019-03-16T17:38:11.043Z,17.61
2019-03-16T17:40:41.772Z,17.54
2019-03-16T17:43:12.548Z,17.45
2019-03-16T17:45:43.242Z,17.43
2019-03-16T17:48:14.048Z,17.33
2019-03-16T17:50:44.823Z,17.36
2019-03-16T17:53:15.433Z,17.29
2019-03-16T17:55:46.179Z,17.25
2019-03-16T17:58:16.699Z,17.20
2019-03-16T18:00:47.339Z,17.16
2019-03-16T18:03:18.084Z,17.16
2019-03-16T18:05:48.585Z,17.11
2019-03-16T18:08:19.080Z,17.03
2019-03-16T18:10:49.865Z,17.01
2019-03-16T18:13:20.439Z,17.00
2019-03-16T18:15:50.908Z,16.94
2019-03-16T18:18:21.566Z,16.97
2019-03-16T18:20:52.304Z,17.00
2019-03-16T18:23:22.953Z,16.95
2019-03-16T18:25:53.659Z,16.96
2019-03-16T18:28:24.475Z,16.90
2019-03-16T18:30:55.342Z,16.90
2019-03-16T18:33:25.973Z,16.96
2019-03-16T18:35:56.748Z,16.91
2019-03-16T18:38:27.622Z,16.87
2019-03-16T18:40:58.314Z,16.87
2019-03-16T18:43:29.023Z,16.89
2019-03-16T18:45:59.861Z,16.86
2019-03-16T18:48:30.663Z,16.85
2019-03-16T18:51:01.876Z,16.84
2019-03-16T18:53:32.671Z,16.88
2019-03-16T18:56:03.369Z,16.84
2019-03-16T18:58:37.623Z,16.85
2019-03-16T19:01:06.506Z,16.85
2019-03-16T19:03:37.182Z,16.78
2019-03-16T19:06:07.915Z,16.75
2019-03-16T19:08:38.616Z,16.70
2019-03-16T19:11:09.564Z,16.67
2019-03-16T19:13:40.262Z,16.64
2019-03-16T19:16:11.170Z,16.60
2019-03-16T19:18:41.903Z,16.59
2019-03-16T19:21:12.607Z,16.60
2019-03-16T19:23:43.108Z,16.57
2019-03-16T19:26:13.602Z,16.56
2019-03-16T19:28:44.055Z,16.52
2019-03-16T19:31:14.547Z,16.50
2019-03-16T19:33:45.405Z,16.47
2019-03-16T19:36:16.347Z,16.45
2019-03-16T19:38:46.969Z,16.44
2019-03-16T19:41:17.464Z,16.33
2019-03-16T19:43:50.367Z,16.34
2019-03-16T19:46:20.163Z,16.29
2019-03-16T19:48:50.606Z,16.32
2019-03-16T19:51:21.206Z,16.30
2019-03-16T19:53:51.682Z,16.31
2019-03-16T19:56:22.133Z,16.29
2019-03-16T19:59:00.568Z,15.67
2019-03-16T20:01:24.772Z,16.33
2019-03-16T20:03:55.267Z,16.41
2019-03-16T20:06:26.263Z,16.39
2019-03-16T20:08:56.845Z,16.41
2019-03-16T20:11:27.302Z,16.40
2019-03-16T20:13:57.800Z,16.41
2019-03-16T20:16:28.362Z,16.39
2019-03-16T20:18:58.818Z,16.42
2019-03-16T20:21:29.311Z,16.42
2019-03-16T20:23:59.775Z,16.47
2019-03-16T20:26:30.272Z,16.41
2019-03-16T20:29:00.758Z,16.44
2019-03-16T20:31:33.373Z,16.47
2019-03-16T20:34:03.493Z,16.44
2019-03-16T20:36:34.030Z,16.38
2019-03-16T20:39:06.546Z,16.41
2019-03-16T20:41:37.145Z,16.38
2019-03-16T20:44:07.778Z,16.37
2019-03-16T20:46:38.239Z,16.39
2019-03-16T20:49:08.753Z,16.36
2019-03-16T20:51:39.196Z,16.40
2019-03-16T20:54:09.683Z,16.40
2019-03-16T20:56:40.164Z,16.38
2019-03-16T20:59:10.644Z,16.36
2019-03-16T21:01:41.103Z,16.27
2019-03-16T21:04:11.562Z,16.30
2019-03-16T21:06:42.037Z,16.28
2019-03-16T21:09:12.536Z,16.21
2019-03-16T21:11:43.167Z,16.12
2019-03-16T21:14:13.627Z,16.10
2019-03-16T21:16:44.120Z,16.20
2019-03-16T21:19:14.613Z,16.16
2019-03-16T21:21:45.072Z,16.03
2019-03-16T21:24:15.581Z,16.01
2019-03-16T21:26:52.618Z,16.01
2019-03-16T21:29:18.238Z,15.93
2019-03-16T21:31:48.714Z,15.93
2019-03-16T21:34:19.167Z,15.98
2019-03-16T21:36:49.625Z,15.88
2019-03-16T21:39:20.067Z,15.87
2019-03-16T21:41:50.566Z,15.89
2019-03-16T21:44:21.008Z,15.90
2019-03-16T21:46:51.503Z,15.86
2019-03-16T21:49:22.004Z,15.75
2019-03-16T21:51:52.509Z,15.73
2019-03-16T21:54:23.040Z,15.75
2019-03-16T21:56:53.517Z,15.83
2019-03-16T21:59:26.323Z,15.91
2019-03-16T22:01:56.136Z,15.96
2019-03-16T22:04:26.625Z,15.99
2019-03-16T22:06:57.075Z,16.03
2019-03-16T22:09:27.567Z,16.06
2019-03-16T22:11:58.070Z,16.12
2019-03-16T22:14:28.555Z,16.09
2019-03-16T22:16:59.030Z,16.13
2019-03-16T22:19:29.503Z,16.15
2019-03-16T22:21:59.997Z,16.18
2019-03-16T22:24:30.623Z,16.18
2019-03-16T22:27:01.069Z,16.22
2019-03-16T22:29:31.556Z,16.24
2019-03-16T22:32:02.003Z,16.18
2019-03-16T22:34:32.493Z,16.22
2019-03-16T22:37:02.937Z,16.21
2019-03-16T22:39:33.435Z,16.14
2019-03-16T22:42:03.881Z,16.06
2019-03-16T22:44:34.365Z,16.03
2019-03-16T22:47:04.893Z,16.07
2019-03-16T22:49:35.390Z,15.98
2019-03-16T22:52:05.993Z,15.93
2019-03-16T22:54:36.444Z,15.91
2019-03-16T22:57:06.935Z,15.87
2019-03-16T22:59:37.391Z,15.80
2019-03-16T23:02:08.151Z,15.76
2019-03-16T23:04:38.803Z,15.79
2019-03-16T23:07:09.354Z,15.74
2019-03-16T23:09:39.878Z,15.66
2019-03-16T23:12:10.328Z,15.65
2019-03-16T23:14:40.838Z,15.69
2019-03-16T23:17:11.295Z,15.54
2019-03-16T23:19:41.792Z,15.52
2019-03-16T23:22:12.290Z,15.56
2019-03-16T23:24:42.794Z,15.52
2019-03-16T23:27:13.247Z,15.53
2019-03-16T23:29:43.741Z,15.45
2019-03-16T23:32:14.286Z,15.37
2019-03-16T23:34:44.767Z,15.45
2019-03-16T23:37:15.219Z,15.39
2019-03-16T23:39:45.710Z,15.38
2019-03-16T23:42:16.196Z,15.40
2019-03-16T23:44:46.645Z,15.36
2019-03-16T23:47:17.291Z,15.36
2019-03-16T23:49:47.698Z,15.28
2019-03-16T23:52:18.189Z,15.32
2019-03-16T23:54:48.648Z,15.22
2019-03-16T23:57:19.133Z,15.23
2019-03-16T23:59:49.630Z,15.08
